sensor_id;sensor_type;location;lat;lon;timestamp;temperature;humidity
69634;DHT22;56860;51.144;16.954;2024-02-04T00:00:13;7.8;58.7
69634;DHT22;56860;51.144;16.954;2024-02-04T00:01:13;7.8;58.8
69634;DHT22;56860;51.144;16.954;2024-02-04T00:02:13;7.8;58.8
69634;DHT22;56860;51.144;16.954;2024-02-04T00:03:13;7.7;58.7
69634;DHT22;56860;51.144;16.954;2024-02-04T00:04:13;7.6;59.0
69634;DHT22;56860;51.144;16.954;2024-02-04T00:05:13;7.5;59.2
69634;DHT22;56860;51.144;16.954;2024-02-04T00:06:13;7.4;59.6
69634;DHT22;56860;51.144;16.954;2024-02-04T00:07:13;7.3;59.4
69634;DHT22;56860;51.144;16.954;2024-02-04T00:08:13;7.3;59.4
69634;DHT22;56860;51.144;16.954;2024-02-04T00:09:13;7.3;59.5
69634;DHT22;56860;51.144;16.954;2024-02-04T00:10:13;7.3;59.5
69634;DHT22;56860;51.144;16.954;2024-02-04T00:11:13;7.3;59.5
69634;DHT22;56860;51.144;16.954;2024-02-04T00:12:13;7.3;59.4
69634;DHT22;56860;51.144;16.954;2024-02-04T00:13:13;7.3;59.3
69634;DHT22;56860;51.144;16.954;2024-02-04T00:14:13;7.4;59.2
69634;DHT22;56860;51.144;16.954;2024-02-04T00:15:13;7.4;58.9
69634;DHT22;56860;51.144;16.954;2024-02-04T00:16:13;7.3;58.6
69634;DHT22;56860;51.144;16.954;2024-02-04T00:17:13;7.3;58.4
69634;DHT22;56860;51.144;16.954;2024-02-04T00:18:13;7.2;58.4
69634;DHT22;56860;51.144;16.954;2024-02-04T00:19:13;7.2;58.6
69634;DHT22;56860;51.144;16.954;2024-02-04T00:20:13;7.2;58.6
69634;DHT22;56860;51.144;16.954;2024-02-04T00:21:13;7.1;58.6
69634;DHT22;56860;51.144;16.954;2024-02-04T00:22:13;7.2;58.7
69634;DHT22;56860;51.144;16.954;2024-02-04T00:23:13;7.2;58.6
69634;DHT22;56860;51.144;16.954;2024-02-04T00:24:13;7.2;58.6
69634;DHT22;56860;51.144;16.954;2024-02-04T00:25:13;7.1;58.2
69634;DHT22;56860;51.144;16.954;2024-02-04T00:26:13;7.0;58.3
69634;DHT22;56860;51.144;16.954;2024-02-04T00:27:13;7.0;59.1
69634;DHT22;56860;51.144;16.954;2024-02-04T00:28:13;7.0;59.4
69634;DHT22;56860;51.144;16.954;2024-02-04T00:29:13;7.0;59.4
69634;DHT22;56860;51.144;16.954;2024-02-04T00:30:13;7.0;59.3
69634;DHT22;56860;51.144;16.954;2024-02-04T00:31:13;7.0;59.3
69634;DHT22;56860;51.144;16.954;2024-02-04T00:32:13;7.0;59.1
69634;DHT22;56860;51.144;16.954;2024-02-04T00:33:13;7.0;58.7
69634;DHT22;56860;51.144;16.954;2024-02-04T00:34:13;7.0;59.0
69634;DHT22;56860;51.144;16.954;2024-02-04T00:35:13;7.0;59.1
69634;DHT22;56860;51.144;16.954;2024-02-04T00:36:13;7.0;59.3
69634;DHT22;56860;51.144;16.954;2024-02-04T00:37:13;7.0;59.1
69634;DHT22;56860;51.144;16.954;2024-02-04T00:38:13;6.9;59.2
69634;DHT22;56860;51.144;16.954;2024-02-04T00:39:13;6.8;59.4
69634;DHT22;56860;51.144;16.954;2024-02-04T00:40:13;6.8;59.2
69634;DHT22;56860;51.144;16.954;2024-02-04T00:41:13;6.7;59.4
69634;DHT22;56860;51.144;16.954;2024-02-04T00:42:13;6.8;59.4
69634;DHT22;56860;51.144;16.954;2024-02-04T00:43:15;6.8;59.9
69634;DHT22;56860;51.144;16.954;2024-02-04T00:44:13;6.8;59.9
69634;DHT22;56860;51.144;16.954;2024-02-04T00:45:13;6.8;59.9
69634;DHT22;56860;51.144;16.954;2024-02-04T00:46:13;7.0;59.6
69634;DHT22;56860;51.144;16.954;2024-02-04T00:47:13;7.0;59.4
69634;DHT22;56860;51.144;16.954;2024-02-04T00:48:13;7.0;59.2
69634;DHT22;56860;51.144;16.954;2024-02-04T00:49:13;6.9;59.2
69634;DHT22;56860;51.144;16.954;2024-02-04T00:50:13;6.8;59.3
69634;DHT22;56860;51.144;16.954;2024-02-04T00:51:13;6.7;59.3
69634;DHT22;56860;51.144;16.954;2024-02-04T00:52:13;6.7;59.6
69634;DHT22;56860;51.144;16.954;2024-02-04T00:53:13;6.7;59.9
69634;DHT22;56860;51.144;16.954;2024-02-04T00:54:13;6.8;59.8
69634;DHT22;56860;51.144;16.954;2024-02-04T00:55:13;6.8;59.7
69634;DHT22;56860;51.144;16.954;2024-02-04T00:56:13;6.8;59.5
69634;DHT22;56860;51.144;16.954;2024-02-04T00:57:13;6.8;59.3
69634;DHT22;56860;51.144;16.954;2024-02-04T00:58:13;6.8;59.1
69634;DHT22;56860;51.144;16.954;2024-02-04T00:59:13;6.8;59.3
69634;DHT22;56860;51.144;16.954;2024-02-04T01:00:13;6.8;59.3
69634;DHT22;56860;51.144;16.954;2024-02-04T01:01:13;6.8;59.4
69634;DHT22;56860;51.144;16.954;2024-02-04T01:02:13;6.8;59.4
69634;DHT22;56860;51.144;16.954;2024-02-04T01:03:13;6.8;59.5
69634;DHT22;56860;51.144;16.954;2024-02-04T01:04:13;6.8;59.4
69634;DHT22;56860;51.144;16.954;2024-02-04T01:05:13;6.9;59.3
69634;DHT22;56860;51.144;16.954;2024-02-04T01:06:13;7.0;58.9
69634;DHT22;56860;51.144;16.954;2024-02-04T01:07:13;7.0;58.8
69634;DHT22;56860;51.144;16.954;2024-02-04T01:08:13;7.1;57.7
69634;DHT22;56860;51.144;16.954;2024-02-04T01:09:13;7.1;57.2
69634;DHT22;56860;51.144;16.954;2024-02-04T01:10:13;7.1;57.1
69634;DHT22;56860;51.144;16.954;2024-02-04T01:11:13;7.0;57.9
69634;DHT22;56860;51.144;16.954;2024-02-04T01:12:13;6.9;57.6
69634;DHT22;56860;51.144;16.954;2024-02-04T01:13:13;6.9;57.6
69634;DHT22;56860;51.144;16.954;2024-02-04T01:14:13;6.8;58.3
69634;DHT22;56860;51.144;16.954;2024-02-04T01:15:13;6.8;58.5
69634;DHT22;56860;51.144;16.954;2024-02-04T01:16:13;6.8;58.6
69634;DHT22;56860;51.144;16.954;2024-02-04T01:17:13;6.8;58.7
69634;DHT22;56860;51.144;16.954;2024-02-04T01:18:13;6.8;58.7
69634;DHT22;56860;51.144;16.954;2024-02-04T01:19:13;6.9;58.5
69634;DHT22;56860;51.144;16.954;2024-02-04T01:20:13;6.8;58.3
69634;DHT22;56860;51.144;16.954;2024-02-04T01:21:13;6.9;58.4
69634;DHT22;56860;51.144;16.954;2024-02-04T01:22:13;6.9;58.2
69634;DHT22;56860;51.144;16.954;2024-02-04T01:23:13;6.9;58.0
69634;DHT22;56860;51.144;16.954;2024-02-04T01:24:13;6.9;58.0
69634;DHT22;56860;51.144;16.954;2024-02-04T01:25:13;6.9;58.2
69634;DHT22;56860;51.144;16.954;2024-02-04T01:26:13;6.9;58.1
69634;DHT22;56860;51.144;16.954;2024-02-04T01:27:13;7.0;58.1
69634;DHT22;56860;51.144;16.954;2024-02-04T01:28:13;7.0;58.0
69634;DHT22;56860;51.144;16.954;2024-02-04T01:29:13;7.0;57.9
69634;DHT22;56860;51.144;16.954;2024-02-04T01:30:13;7.0;57.9
69634;DHT22;56860;51.144;16.954;2024-02-04T01:31:13;7.0;57.9
69634;DHT22;56860;51.144;16.954;2024-02-04T01:32:13;7.0;57.9
69634;DHT22;56860;51.144;16.954;2024-02-04T01:33:13;7.0;57.9
69634;DHT22;56860;51.144;16.954;2024-02-04T01:34:13;6.9;57.9
69634;DHT22;56860;51.144;16.954;2024-02-04T01:35:13;6.9;58.1
69634;DHT22;56860;51.144;16.954;2024-02-04T01:36:13;6.8;58.2
69634;DHT22;56860;51.144;16.954;2024-02-04T01:37:13;6.8;58.4
69634;DHT22;56860;51.144;16.954;2024-02-04T01:38:13;6.8;58.5
69634;DHT22;56860;51.144;16.954;2024-02-04T01:39:13;6.8;58.5
69634;DHT22;56860;51.144;16.954;2024-02-04T01:40:13;6.7;58.7
69634;DHT22;56860;51.144;16.954;2024-02-04T01:41:13;6.8;58.8
69634;DHT22;56860;51.144;16.954;2024-02-04T01:42:13;6.7;58.9
69634;DHT22;56860;51.144;16.954;2024-02-04T01:43:13;6.7;59.0
69634;DHT22;56860;51.144;16.954;2024-02-04T01:44:13;6.7;59.2
69634;DHT22;56860;51.144;16.954;2024-02-04T01:45:13;6.7;59.2
69634;DHT22;56860;51.144;16.954;2024-02-04T01:46:13;6.7;59.0
69634;DHT22;56860;51.144;16.954;2024-02-04T01:47:13;6.8;59.1
69634;DHT22;56860;51.144;16.954;2024-02-04T01:48:13;6.8;59.2
69634;DHT22;56860;51.144;16.954;2024-02-04T01:49:13;6.8;59.4
69634;DHT22;56860;51.144;16.954;2024-02-04T01:50:13;6.8;59.3
69634;DHT22;56860;51.144;16.954;2024-02-04T01:51:14;6.9;59.2
69634;DHT22;56860;51.144;16.954;2024-02-04T01:52:13;6.9;59.1
69634;DHT22;56860;51.144;16.954;2024-02-04T01:53:13;7.0;59.1
69634;DHT22;56860;51.144;16.954;2024-02-04T01:54:13;7.0;58.9
69634;DHT22;56860;51.144;16.954;2024-02-04T01:55:13;7.0;59.0
69634;DHT22;56860;51.144;16.954;2024-02-04T01:56:13;7.0;59.0
69634;DHT22;56860;51.144;16.954;2024-02-04T01:57:13;7.0;59.1
69634;DHT22;56860;51.144;16.954;2024-02-04T01:58:13;7.0;59.1
69634;DHT22;56860;51.144;16.954;2024-02-04T01:59:13;7.1;58.3
69634;DHT22;56860;51.144;16.954;2024-02-04T02:00:13;7.1;58.1
69634;DHT22;56860;51.144;16.954;2024-02-04T02:01:13;7.1;58.0
69634;DHT22;56860;51.144;16.954;2024-02-04T02:02:13;7.1;58.0
69634;DHT22;56860;51.144;16.954;2024-02-04T02:03:13;7.1;57.9
69634;DHT22;56860;51.144;16.954;2024-02-04T02:04:13;7.1;57.9
69634;DHT22;56860;51.144;16.954;2024-02-04T02:05:13;7.2;57.8
69634;DHT22;56860;51.144;16.954;2024-02-04T02:06:14;7.1;57.7
69634;DHT22;56860;51.144;16.954;2024-02-04T02:07:13;7.1;57.5
69634;DHT22;56860;51.144;16.954;2024-02-04T02:08:13;7.2;57.8
69634;DHT22;56860;51.144;16.954;2024-02-04T02:09:13;7.2;57.8
69634;DHT22;56860;51.144;16.954;2024-02-04T02:10:13;7.2;57.7
69634;DHT22;56860;51.144;16.954;2024-02-04T02:11:17;7.2;57.8
69634;DHT22;56860;51.144;16.954;2024-02-04T02:12:14;7.2;57.8
69634;DHT22;56860;51.144;16.954;2024-02-04T02:13:14;7.2;57.9
69634;DHT22;56860;51.144;16.954;2024-02-04T02:14:14;7.2;57.7
69634;DHT22;56860;51.144;16.954;2024-02-04T02:15:14;7.2;57.8
69634;DHT22;56860;51.144;16.954;2024-02-04T02:16:15;7.2;58.0
69634;DHT22;56860;51.144;16.954;2024-02-04T02:17:14;7.2;58.0
69634;DHT22;56860;51.144;16.954;2024-02-04T02:18:14;7.1;57.9
69634;DHT22;56860;51.144;16.954;2024-02-04T02:19:17;7.2;58.0
69634;DHT22;56860;51.144;16.954;2024-02-04T02:20:15;7.2;57.4
69634;DHT22;56860;51.144;16.954;2024-02-04T02:21:16;7.2;57.6
69634;DHT22;56860;51.144;16.954;2024-02-04T02:22:16;7.2;57.7
69634;DHT22;56860;51.144;16.954;2024-02-04T02:23:14;7.2;58.0
69634;DHT22;56860;51.144;16.954;2024-02-04T02:24:14;7.2;58.0
69634;DHT22;56860;51.144;16.954;2024-02-04T02:25:14;7.3;58.0
69634;DHT22;56860;51.144;16.954;2024-02-04T02:26:13;7.3;57.9
69634;DHT22;56860;51.144;16.954;2024-02-04T02:27:13;7.3;57.6
69634;DHT22;56860;51.144;16.954;2024-02-04T02:28:13;7.3;57.5
69634;DHT22;56860;51.144;16.954;2024-02-04T02:29:13;7.3;57.5
69634;DHT22;56860;51.144;16.954;2024-02-04T02:30:13;7.3;57.6
69634;DHT22;56860;51.144;16.954;2024-02-04T02:31:13;7.2;57.8
69634;DHT22;56860;51.144;16.954;2024-02-04T02:32:13;7.2;57.8
69634;DHT22;56860;51.144;16.954;2024-02-04T02:33:13;7.2;57.9
69634;DHT22;56860;51.144;16.954;2024-02-04T02:36:15;7.1;58.1
69634;DHT22;56860;51.144;16.954;2024-02-04T02:37:20;7.0;59.2
69634;DHT22;56860;51.144;16.954;2024-02-04T02:38:16;7.0;59.2
69634;DHT22;56860;51.144;16.954;2024-02-04T02:39:15;6.8;60.3
69634;DHT22;56860;51.144;16.954;2024-02-04T02:40:16;6.8;60.3
69634;DHT22;56860;51.144;16.954;2024-02-04T02:41:13;6.8;60.3
69634;DHT22;56860;51.144;16.954;2024-02-04T02:42:13;6.8;60.4
69634;DHT22;56860;51.144;16.954;2024-02-04T02:43:13;6.8;60.5
69634;DHT22;56860;51.144;16.954;2024-02-04T02:44:13;6.8;60.5
69634;DHT22;56860;51.144;16.954;2024-02-04T02:45:13;6.8;60.3
69634;DHT22;56860;51.144;16.954;2024-02-04T02:46:13;6.8;60.2
69634;DHT22;56860;51.144;16.954;2024-02-04T02:47:14;6.7;60.5
69634;DHT22;56860;51.144;16.954;2024-02-04T02:48:14;6.6;60.6
69634;DHT22;56860;51.144;16.954;2024-02-04T02:49:13;6.5;60.5
69634;DHT22;56860;51.144;16.954;2024-02-04T02:50:13;6.5;60.5
69634;DHT22;56860;51.144;16.954;2024-02-04T02:51:13;6.5;60.4
69634;DHT22;56860;51.144;16.954;2024-02-04T02:52:13;6.5;60.0
69634;DHT22;56860;51.144;16.954;2024-02-04T02:53:14;6.5;60.1
69634;DHT22;56860;51.144;16.954;2024-02-04T02:54:13;6.5;59.9
69634;DHT22;56860;51.144;16.954;2024-02-04T02:55:13;6.5;59.5
69634;DHT22;56860;51.144;16.954;2024-02-04T02:56:13;6.6;59.2
69634;DHT22;56860;51.144;16.954;2024-02-04T02:57:13;6.5;58.7
69634;DHT22;56860;51.144;16.954;2024-02-04T02:58:14;6.5;58.7
69634;DHT22;56860;51.144;16.954;2024-02-04T02:59:13;6.5;58.3
69634;DHT22;56860;51.144;16.954;2024-02-04T03:00:14;6.6;58.0
69634;DHT22;56860;51.144;16.954;2024-02-04T03:01:13;6.5;58.0
69634;DHT22;56860;51.144;16.954;2024-02-04T03:02:15;6.5;57.8
69634;DHT22;56860;51.144;16.954;2024-02-04T03:03:13;6.5;57.5
69634;DHT22;56860;51.144;16.954;2024-02-04T03:04:13;6.5;57.3
69634;DHT22;56860;51.144;16.954;2024-02-04T03:05:14;6.5;57.3
69634;DHT22;56860;51.144;16.954;2024-02-04T03:06:13;6.5;57.3
69634;DHT22;56860;51.144;16.954;2024-02-04T03:07:14;6.4;57.2
69634;DHT22;56860;51.144;16.954;2024-02-04T03:08:13;6.4;57.2
69634;DHT22;56860;51.144;16.954;2024-02-04T03:09:13;6.4;57.1
69634;DHT22;56860;51.144;16.954;2024-02-04T03:10:13;6.3;56.5
69634;DHT22;56860;51.144;16.954;2024-02-04T03:11:13;6.3;56.6
69634;DHT22;56860;51.144;16.954;2024-02-04T03:12:14;6.3;56.6
69634;DHT22;56860;51.144;16.954;2024-02-04T03:13:14;6.3;56.1
69634;DHT22;56860;51.144;16.954;2024-02-04T03:14:14;6.3;56.3
69634;DHT22;56860;51.144;16.954;2024-02-04T03:15:13;6.3;56.5
69634;DHT22;56860;51.144;16.954;2024-02-04T03:16:13;6.2;56.5
69634;DHT22;56860;51.144;16.954;2024-02-04T03:17:13;6.2;56.2
69634;DHT22;56860;51.144;16.954;2024-02-04T03:18:13;6.2;55.5
69634;DHT22;56860;51.144;16.954;2024-02-04T03:19:14;6.2;56.1
69634;DHT22;56860;51.144;16.954;2024-02-04T03:20:14;6.2;56.3
69634;DHT22;56860;51.144;16.954;2024-02-04T03:21:14;6.2;56.5
69634;DHT22;56860;51.144;16.954;2024-02-04T03:22:13;6.2;56.5
69634;DHT22;56860;51.144;16.954;2024-02-04T03:23:15;6.2;56.5
69634;DHT22;56860;51.144;16.954;2024-02-04T03:24:13;6.2;56.4
69634;DHT22;56860;51.144;16.954;2024-02-04T03:25:14;6.3;56.5
69634;DHT22;56860;51.144;16.954;2024-02-04T03:26:16;6.3;56.5
69634;DHT22;56860;51.144;16.954;2024-02-04T03:27:13;6.3;56.3
69634;DHT22;56860;51.144;16.954;2024-02-04T03:28:13;6.3;56.2
69634;DHT22;56860;51.144;16.954;2024-02-04T03:29:13;6.2;56.0
69634;DHT22;56860;51.144;16.954;2024-02-04T03:30:14;6.2;55.9
69634;DHT22;56860;51.144;16.954;2024-02-04T03:31:19;6.2;56.0
69634;DHT22;56860;51.144;16.954;2024-02-04T03:32:13;6.3;55.9
69634;DHT22;56860;51.144;16.954;2024-02-04T03:33:13;6.3;55.4
69634;DHT22;56860;51.144;16.954;2024-02-04T03:34:13;6.3;55.3
69634;DHT22;56860;51.144;16.954;2024-02-04T03:35:13;6.2;55.4
69634;DHT22;56860;51.144;16.954;2024-02-04T03:36:15;6.2;55.5
69634;DHT22;56860;51.144;16.954;2024-02-04T03:37:13;6.2;55.7
69634;DHT22;56860;51.144;16.954;2024-02-04T03:38:13;6.1;55.8
69634;DHT22;56860;51.144;16.954;2024-02-04T03:39:13;6.1;55.8
69634;DHT22;56860;51.144;16.954;2024-02-04T03:40:13;6.2;55.8
69634;DHT22;56860;51.144;16.954;2024-02-04T03:41:13;6.2;54.8
69634;DHT22;56860;51.144;16.954;2024-02-04T03:42:13;6.1;55.0
69634;DHT22;56860;51.144;16.954;2024-02-04T03:43:13;6.1;55.1
69634;DHT22;56860;51.144;16.954;2024-02-04T03:44:15;6.1;55.1
69634;DHT22;56860;51.144;16.954;2024-02-04T03:45:13;6.1;55.3
69634;DHT22;56860;51.144;16.954;2024-02-04T03:46:14;6.1;55.1
69634;DHT22;56860;51.144;16.954;2024-02-04T03:47:13;6.1;55.1
69634;DHT22;56860;51.144;16.954;2024-02-04T03:48:13;6.1;54.9
69634;DHT22;56860;51.144;16.954;2024-02-04T03:49:14;6.1;54.8
69634;DHT22;56860;51.144;16.954;2024-02-04T03:50:14;6.1;54.8
69634;DHT22;56860;51.144;16.954;2024-02-04T03:51:15;6.1;54.4
69634;DHT22;56860;51.144;16.954;2024-02-04T03:52:14;6.0;54.7
69634;DHT22;56860;51.144;16.954;2024-02-04T03:53:13;6.0;54.0
69634;DHT22;56860;51.144;16.954;2024-02-04T03:54:13;6.0;54.2
69634;DHT22;56860;51.144;16.954;2024-02-04T03:55:14;6.0;54.2
69634;DHT22;56860;51.144;16.954;2024-02-04T03:56:13;6.1;54.2
69634;DHT22;56860;51.144;16.954;2024-02-04T03:57:13;6.0;53.6
69634;DHT22;56860;51.144;16.954;2024-02-04T03:58:13;5.9;52.9
69634;DHT22;56860;51.144;16.954;2024-02-04T03:59:13;5.9;52.2
69634;DHT22;56860;51.144;16.954;2024-02-04T04:00:14;5.9;52.2
69634;DHT22;56860;51.144;16.954;2024-02-04T04:01:13;5.9;52.1
69634;DHT22;56860;51.144;16.954;2024-02-04T04:02:13;5.9;51.6
69634;DHT22;56860;51.144;16.954;2024-02-04T04:03:13;5.9;51.3
69634;DHT22;56860;51.144;16.954;2024-02-04T04:04:13;5.9;50.7
69634;DHT22;56860;51.144;16.954;2024-02-04T04:05:15;5.9;50.5
69634;DHT22;56860;51.144;16.954;2024-02-04T04:06:13;6.0;50.8
69634;DHT22;56860;51.144;16.954;2024-02-04T04:07:13;6.0;50.4
69634;DHT22;56860;51.144;16.954;2024-02-04T04:08:13;6.0;50.1
69634;DHT22;56860;51.144;16.954;2024-02-04T04:09:13;6.0;49.8
69634;DHT22;56860;51.144;16.954;2024-02-04T04:10:13;6.1;49.4
69634;DHT22;56860;51.144;16.954;2024-02-04T04:11:14;6.1;49.3
69634;DHT22;56860;51.144;16.954;2024-02-04T04:12:13;6.2;49.0
69634;DHT22;56860;51.144;16.954;2024-02-04T04:13:13;6.2;48.8
69634;DHT22;56860;51.144;16.954;2024-02-04T04:14:13;6.3;48.8
69634;DHT22;56860;51.144;16.954;2024-02-04T04:15:14;6.3;48.5
69634;DHT22;56860;51.144;16.954;2024-02-04T04:16:13;6.3;48.4
69634;DHT22;56860;51.144;16.954;2024-02-04T04:17:13;6.3;48.3
69634;DHT22;56860;51.144;16.954;2024-02-04T04:18:13;6.2;48.1
69634;DHT22;56860;51.144;16.954;2024-02-04T04:19:13;6.2;48.4
69634;DHT22;56860;51.144;16.954;2024-02-04T04:20:13;6.2;48.6
69634;DHT22;56860;51.144;16.954;2024-02-04T04:21:13;6.3;48.6
69634;DHT22;56860;51.144;16.954;2024-02-04T04:22:13;6.3;48.6
69634;DHT22;56860;51.144;16.954;2024-02-04T04:23:13;6.2;48.4
69634;DHT22;56860;51.144;16.954;2024-02-04T04:24:14;6.2;48.2
69634;DHT22;56860;51.144;16.954;2024-02-04T04:25:14;6.2;48.5
69634;DHT22;56860;51.144;16.954;2024-02-04T04:26:13;6.3;48.5
69634;DHT22;56860;51.144;16.954;2024-02-04T04:27:14;6.3;48.3
69634;DHT22;56860;51.144;16.954;2024-02-04T04:28:13;6.3;48.3
69634;DHT22;56860;51.144;16.954;2024-02-04T04:29:13;6.3;48.5
69634;DHT22;56860;51.144;16.954;2024-02-04T04:30:14;6.3;48.4
69634;DHT22;56860;51.144;16.954;2024-02-04T04:31:13;6.3;48.3
69634;DHT22;56860;51.144;16.954;2024-02-04T04:32:13;6.3;48.3
69634;DHT22;56860;51.144;16.954;2024-02-04T04:33:14;6.4;48.1
69634;DHT22;56860;51.144;16.954;2024-02-04T04:34:13;6.4;47.9
69634;DHT22;56860;51.144;16.954;2024-02-04T04:35:13;6.4;47.6
69634;DHT22;56860;51.144;16.954;2024-02-04T04:36:14;6.4;47.8
69634;DHT22;56860;51.144;16.954;2024-02-04T04:37:13;6.4;47.9
69634;DHT22;56860;51.144;16.954;2024-02-04T04:38:13;6.4;47.6
69634;DHT22;56860;51.144;16.954;2024-02-04T04:39:13;6.5;47.5
69634;DHT22;56860;51.144;16.954;2024-02-04T04:40:14;6.5;47.2
69634;DHT22;56860;51.144;16.954;2024-02-04T04:41:14;6.4;47.6
69634;DHT22;56860;51.144;16.954;2024-02-04T04:42:14;6.4;47.9
69634;DHT22;56860;51.144;16.954;2024-02-04T04:43:14;6.4;47.5
69634;DHT22;56860;51.144;16.954;2024-02-04T04:44:14;6.5;48.0
69634;DHT22;56860;51.144;16.954;2024-02-04T04:45:14;6.5;48.1
69634;DHT22;56860;51.144;16.954;2024-02-04T04:46:14;6.5;47.8
69634;DHT22;56860;51.144;16.954;2024-02-04T04:47:15;6.5;47.7
69634;DHT22;56860;51.144;16.954;2024-02-04T04:48:14;6.4;48.1
69634;DHT22;56860;51.144;16.954;2024-02-04T04:49:14;6.4;48.2
69634;DHT22;56860;51.144;16.954;2024-02-04T04:50:14;6.5;48.2
69634;DHT22;56860;51.144;16.954;2024-02-04T04:51:14;6.5;48.1
69634;DHT22;56860;51.144;16.954;2024-02-04T04:52:14;6.5;48.1
69634;DHT22;56860;51.144;16.954;2024-02-04T04:53:14;6.5;48.0
69634;DHT22;56860;51.144;16.954;2024-02-04T04:54:14;6.5;47.8
69634;DHT22;56860;51.144;16.954;2024-02-04T04:55:14;6.5;47.8
69634;DHT22;56860;51.144;16.954;2024-02-04T04:56:14;6.4;48.0
69634;DHT22;56860;51.144;16.954;2024-02-04T04:57:14;6.3;47.9
69634;DHT22;56860;51.144;16.954;2024-02-04T04:58:14;6.3;48.3
69634;DHT22;56860;51.144;16.954;2024-02-04T04:59:14;6.3;48.6
69634;DHT22;56860;51.144;16.954;2024-02-04T05:00:14;6.3;48.8
69634;DHT22;56860;51.144;16.954;2024-02-04T05:01:14;6.2;48.8
69634;DHT22;56860;51.144;16.954;2024-02-04T05:02:14;6.2;48.8
69634;DHT22;56860;51.144;16.954;2024-02-04T05:03:14;6.2;48.8
69634;DHT22;56860;51.144;16.954;2024-02-04T05:04:14;6.2;49.1
69634;DHT22;56860;51.144;16.954;2024-02-04T05:05:14;6.2;49.0
69634;DHT22;56860;51.144;16.954;2024-02-04T05:06:14;6.2;48.9
69634;DHT22;56860;51.144;16.954;2024-02-04T05:07:14;6.2;49.0
69634;DHT22;56860;51.144;16.954;2024-02-04T05:08:14;6.3;48.9
69634;DHT22;56860;51.144;16.954;2024-02-04T05:09:14;6.3;48.9
69634;DHT22;56860;51.144;16.954;2024-02-04T05:10:14;6.3;48.7
69634;DHT22;56860;51.144;16.954;2024-02-04T05:11:14;6.2;48.6
69634;DHT22;56860;51.144;16.954;2024-02-04T05:12:14;6.2;48.7
69634;DHT22;56860;51.144;16.954;2024-02-04T05:13:14;6.2;48.7
69634;DHT22;56860;51.144;16.954;2024-02-04T05:14:14;6.2;48.7
69634;DHT22;56860;51.144;16.954;2024-02-04T05:15:14;6.2;48.7
69634;DHT22;56860;51.144;16.954;2024-02-04T05:16:14;6.2;48.8
69634;DHT22;56860;51.144;16.954;2024-02-04T05:17:14;6.2;48.8
69634;DHT22;56860;51.144;16.954;2024-02-04T05:18:14;6.1;48.7
69634;DHT22;56860;51.144;16.954;2024-02-04T05:19:14;6.0;48.5
69634;DHT22;56860;51.144;16.954;2024-02-04T05:20:14;6.0;48.7
69634;DHT22;56860;51.144;16.954;2024-02-04T05:21:14;6.0;48.9
69634;DHT22;56860;51.144;16.954;2024-02-04T05:22:14;6.0;48.9
69634;DHT22;56860;51.144;16.954;2024-02-04T05:23:14;6.0;49.0
69634;DHT22;56860;51.144;16.954;2024-02-04T05:24:14;6.1;48.8
69634;DHT22;56860;51.144;16.954;2024-02-04T05:25:14;6.0;48.6
69634;DHT22;56860;51.144;16.954;2024-02-04T05:26:14;6.0;48.5
69634;DHT22;56860;51.144;16.954;2024-02-04T05:27:14;6.0;48.7
69634;DHT22;56860;51.144;16.954;2024-02-04T05:28:14;5.9;48.8
69634;DHT22;56860;51.144;16.954;2024-02-04T05:29:14;5.8;48.9
69634;DHT22;56860;51.144;16.954;2024-02-04T05:30:14;5.8;49.2
69634;DHT22;56860;51.144;16.954;2024-02-04T05:31:14;5.8;49.3
69634;DHT22;56860;51.144;16.954;2024-02-04T05:32:14;5.8;49.3
69634;DHT22;56860;51.144;16.954;2024-02-04T05:33:14;5.8;49.2
69634;DHT22;56860;51.144;16.954;2024-02-04T05:34:14;5.9;49.1
69634;DHT22;56860;51.144;16.954;2024-02-04T05:35:14;5.8;49.0
69634;DHT22;56860;51.144;16.954;2024-02-04T05:36:14;5.9;49.1
69634;DHT22;56860;51.144;16.954;2024-02-04T05:37:14;5.9;49.2
69634;DHT22;56860;51.144;16.954;2024-02-04T05:38:14;5.8;48.9
69634;DHT22;56860;51.144;16.954;2024-02-04T05:39:14;5.8;48.7
69634;DHT22;56860;51.144;16.954;2024-02-04T05:40:14;5.9;48.7
69634;DHT22;56860;51.144;16.954;2024-02-04T05:41:14;5.8;48.1
69634;DHT22;56860;51.144;16.954;2024-02-04T05:42:14;5.8;48.6
69634;DHT22;56860;51.144;16.954;2024-02-04T05:43:14;5.8;48.6
69634;DHT22;56860;51.144;16.954;2024-02-04T05:44:14;5.8;48.9
69634;DHT22;56860;51.144;16.954;2024-02-04T05:45:14;5.7;48.9
69634;DHT22;56860;51.144;16.954;2024-02-04T05:46:14;5.8;48.9
69634;DHT22;56860;51.144;16.954;2024-02-04T05:47:14;5.8;48.8
69634;DHT22;56860;51.144;16.954;2024-02-04T05:48:14;5.8;48.6
69634;DHT22;56860;51.144;16.954;2024-02-04T05:49:14;5.8;48.5
69634;DHT22;56860;51.144;16.954;2024-02-04T05:50:14;5.8;48.5
69634;DHT22;56860;51.144;16.954;2024-02-04T05:51:14;5.8;48.4
69634;DHT22;56860;51.144;16.954;2024-02-04T05:52:14;5.8;48.2
69634;DHT22;56860;51.144;16.954;2024-02-04T05:53:14;5.8;48.3
69634;DHT22;56860;51.144;16.954;2024-02-04T05:54:14;5.8;48.3
69634;DHT22;56860;51.144;16.954;2024-02-04T05:55:14;5.8;48.3
69634;DHT22;56860;51.144;16.954;2024-02-04T05:56:14;5.7;48.3
69634;DHT22;56860;51.144;16.954;2024-02-04T05:57:14;5.7;48.3
69634;DHT22;56860;51.144;16.954;2024-02-04T05:58:14;5.7;48.3
69634;DHT22;56860;51.144;16.954;2024-02-04T05:59:14;5.8;48.1
69634;DHT22;56860;51.144;16.954;2024-02-04T06:00:14;5.7;48.3
69634;DHT22;56860;51.144;16.954;2024-02-04T06:01:14;5.6;48.0
69634;DHT22;56860;51.144;16.954;2024-02-04T06:02:14;5.5;48.8
69634;DHT22;56860;51.144;16.954;2024-02-04T06:03:14;5.5;48.7
69634;DHT22;56860;51.144;16.954;2024-02-04T06:04:14;5.6;49.1
69634;DHT22;56860;51.144;16.954;2024-02-04T06:05:14;5.6;49.0
69634;DHT22;56860;51.144;16.954;2024-02-04T06:06:14;5.6;49.0
69634;DHT22;56860;51.144;16.954;2024-02-04T06:07:14;5.7;48.7
69634;DHT22;56860;51.144;16.954;2024-02-04T06:08:14;5.7;48.4
69634;DHT22;56860;51.144;16.954;2024-02-04T06:09:14;5.7;48.3
69634;DHT22;56860;51.144;16.954;2024-02-04T06:10:14;5.8;48.3
69634;DHT22;56860;51.144;16.954;2024-02-04T06:11:14;5.8;48.2
69634;DHT22;56860;51.144;16.954;2024-02-04T06:12:14;5.9;47.8
69634;DHT22;56860;51.144;16.954;2024-02-04T06:13:14;5.9;47.4
69634;DHT22;56860;51.144;16.954;2024-02-04T06:14:14;5.9;47.4
69634;DHT22;56860;51.144;16.954;2024-02-04T06:15:14;5.9;47.5
69634;DHT22;56860;51.144;16.954;2024-02-04T06:16:14;5.8;47.5
69634;DHT22;56860;51.144;16.954;2024-02-04T06:17:14;5.7;47.6
69634;DHT22;56860;51.144;16.954;2024-02-04T06:18:14;5.7;47.8
69634;DHT22;56860;51.144;16.954;2024-02-04T06:19:14;5.7;47.7
69634;DHT22;56860;51.144;16.954;2024-02-04T06:20:14;5.8;47.7
69634;DHT22;56860;51.144;16.954;2024-02-04T06:21:14;5.8;47.1
69634;DHT22;56860;51.144;16.954;2024-02-04T06:22:14;5.8;47.3
69634;DHT22;56860;51.144;16.954;2024-02-04T06:23:14;5.7;47.6
69634;DHT22;56860;51.144;16.954;2024-02-04T06:24:14;5.6;48.0
69634;DHT22;56860;51.144;16.954;2024-02-04T06:25:14;5.7;48.0
69634;DHT22;56860;51.144;16.954;2024-02-04T06:26:14;5.6;47.9
69634;DHT22;56860;51.144;16.954;2024-02-04T06:27:14;5.6;47.9
69634;DHT22;56860;51.144;16.954;2024-02-04T06:28:14;5.7;47.9
69634;DHT22;56860;51.144;16.954;2024-02-04T06:29:14;5.7;47.5
69634;DHT22;56860;51.144;16.954;2024-02-04T06:30:14;5.8;47.4
69634;DHT22;56860;51.144;16.954;2024-02-04T06:31:14;5.8;47.1
69634;DHT22;56860;51.144;16.954;2024-02-04T06:32:14;5.9;46.9
69634;DHT22;56860;51.144;16.954;2024-02-04T06:33:14;5.9;46.5